Time;durP1;ratioP1;P1;durP2;ratioP2;P2;SDS_P1;SDS_P2;PMS_P1;PMS_P2;Temp;Humidity;BMP_temperature;BMP_pressure;BME280_temperature;BME280_humidity;BME280_pressure;Samples;Min_cycle;Max_cycle;Signal;HPM_P1;HPM_P2
2023/04/09 00:00:18;;;;;;;5.43;3.50;;;10.90;99.90;;;;;;5008119;28;20427;-72
2023/04/09 00:02:43;;;;;;;6.57;3.85;;;10.80;99.90;;;;;;5007480;28;20031;-72
2023/04/09 00:05:09;;;;;;;5.65;3.53;;;10.80;99.90;;;;;;4991719;28;20034;-73
2023/04/09 00:07:35;;;;;;;6.13;3.85;;;10.70;99.90;;;;;;4992999;28;20076;-73
2023/04/09 00:10:00;;;;;;;6.25;4.13;;;10.70;99.90;;;;;;4992363;28;20030;-72
2023/04/09 00:12:26;;;;;;;7.22;4.10;;;10.70;99.90;;;;;;4991604;28;20037;-73
2023/04/09 00:14:51;;;;;;;7.35;3.72;;;10.70;99.90;;;;;;4996136;28;20042;-73
2023/04/09 00:17:17;;;;;;;6.25;3.80;;;10.70;99.90;;;;;;4995470;28;20035;-72
2023/04/09 00:19:43;;;;;;;5.75;3.88;;;10.80;99.90;;;;;;4996718;28;20030;-73
2023/04/09 00:22:08;;;;;;;6.40;4.07;;;10.70;99.90;;;;;;4994965;28;20030;-72
2023/04/09 00:24:34;;;;;;;8.43;4.55;;;10.70;99.90;;;;;;4996666;28;20456;-73
2023/04/09 00:26:59;;;;;;;7.40;4.13;;;10.80;99.90;;;;;;5010999;28;20112;-72
2023/04/09 00:29:26;;;;;;;7.25;3.80;;;10.70;99.90;;;;;;4995233;28;20027;-73
2023/04/09 00:31:51;;;;;;;5.65;3.65;;;10.70;99.90;;;;;;4995956;28;20122;-73
2023/04/09 00:34:17;;;;;;;6.50;4.07;;;10.70;99.90;;;;;;4996486;28;20444;-72
2023/04/09 00:36:43;;;;;;;6.00;3.90;;;10.70;99.90;;;;;;4996379;28;20494;-73
2023/04/09 00:39:08;;;;;;;5.15;3.38;;;10.70;99.90;;;;;;4994518;28;20080;-72
2023/04/09 00:41:34;;;;;;;7.78;3.90;;;10.70;99.90;;;;;;4996466;28;20435;-73
2023/04/09 00:43:59;;;;;;;5.82;3.88;;;10.70;99.90;;;;;;4993921;28;20054;-73
2023/04/09 00:46:25;;;;;;;8.80;4.55;;;10.60;99.90;;;;;;5011201;28;20472;-72
2023/04/09 00:48:51;;;;;;;6.28;4.20;;;10.60;99.90;;;;;;4995624;28;20031;-72
2023/04/09 00:51:17;;;;;;;7.10;4.03;;;10.50;99.90;;;;;;4996427;28;20081;-73
2023/04/09 00:53:42;;;;;;;6.88;4.07;;;10.50;99.90;;;;;;4994442;28;20041;-73
2023/04/09 00:56:10;;;;;;;7.57;4.20;;;10.50;99.90;;;;;;5010446;28;20033;-73
2023/04/09 00:58:36;;;;;;;7.82;4.30;;;10.50;99.90;;;;;;5011006;28;20026;-73
2023/04/09 01:01:02;;;;;;;8.20;4.70;;;10.50;99.90;;;;;;4994023;28;20022;-72
2023/04/09 01:03:27;;;;;;;6.65;3.67;;;10.40;99.90;;;;;;4995932;28;20022;-72
2023/04/09 01:06:44;;;;;;;8.02;3.92;;;10.40;99.90;;;;;;4995320;28;20034;-73
2023/04/09 01:09:09;;;;;;;6.85;3.97;;;10.40;99.90;;;;;;4977224;28;20042;-72
2023/04/09 01:11:45;;;;;;;7.95;4.53;;;10.40;99.90;;;;;;4994194;28;20026;-74
2023/04/09 01:14:33;;;;;;;7.97;4.07;;;10.30;99.90;;;;;;4995112;28;20058;-72
2023/04/09 01:17:04;;;;;;;7.07;3.85;;;10.30;99.90;;;;;;4993816;28;20041;-72
2023/04/09 01:19:36;;;;;;;7.25;4.30;;;10.40;99.90;;;;;;4995713;28;20027;-72
2023/04/09 01:22:06;;;;;;;7.15;3.88;;;10.40;99.90;;;;;;4993735;28;20092;-72
2023/04/09 01:24:39;;;;;;;7.90;3.58;;;10.40;99.90;;;;;;4994752;28;20027;-73
2023/04/09 01:27:07;;;;;;;7.13;4.15;;;10.40;99.90;;;;;;4993493;28;20490;-73
2023/04/09 01:29:35;;;;;;;8.32;4.03;;;10.40;99.90;;;;;;4994169;28;20061;-72
2023/04/09 01:32:03;;;;;;;8.27;4.45;;;10.40;99.90;;;;;;4995106;28;20472;-73
2023/04/09 01:34:30;;;;;;;8.88;4.28;;;10.30;99.90;;;;;;4995310;28;20530;-73
2023/04/09 01:36:58;;;;;;;6.53;4.15;;;10.30;99.90;;;;;;4994724;28;20058;-72
2023/04/09 01:39:25;;;;;;;8.15;3.95;;;10.20;99.90;;;;;;4993998;28;20027;-72
2023/04/09 01:41:51;;;;;;;8.20;4.55;;;10.20;99.90;;;;;;4994277;28;20037;-72
2023/04/09 01:44:18;;;;;;;8.18;4.25;;;10.20;99.90;;;;;;4995480;28;20041;-72
2023/04/09 01:46:46;;;;;;;9.43;4.40;;;10.20;99.90;;;;;;4995140;28;20027;-72
2023/04/09 01:49:12;;;;;;;7.18;4.43;;;10.20;99.90;;;;;;4994521;28;20030;-73
2023/04/09 01:51:38;;;;;;;7.00;4.20;;;10.20;99.90;;;;;;4993694;28;20113;-72
2023/04/09 01:54:03;;;;;;;8.50;4.60;;;10.20;99.90;;;;;;5009305;28;20121;-72
2023/04/09 01:56:58;;;;;;;6.82;4.30;;;10.20;99.90;;;;;;4993850;28;20034;-72
2023/04/09 01:59:24;;;;;;;6.38;4.07;;;10.10;99.90;;;;;;4977176;28;20066;-72
2023/04/09 02:01:58;;;;;;;8.02;4.38;;;10.10;99.90;;;;;;4992893;28;20080;-72
2023/04/09 02:04:34;;;;;;;8.23;4.38;;;10.10;99.90;;;;;;4994908;28;20034;-72
2023/04/09 02:07:14;;;;;;;8.90;4.63;;;10.10;99.90;;;;;;4992909;28;20030;-73
2023/04/09 02:09:42;;;;;;;7.28;4.35;;;10.10;99.90;;;;;;4994457;28;20387;-72
2023/04/09 02:12:13;;;;;;;7.32;4.10;;;10.10;99.90;;;;;;4994218;28;20068;-72
2023/04/09 02:14:40;;;;;;;7.90;4.35;;;10.00;99.90;;;;;;4994698;28;20092;-72
2023/04/09 02:17:05;;;;;;;7.20;4.22;;;10.10;99.90;;;;;;4992655;28;20035;-72
2023/04/09 02:19:42;;;;;;;7.88;4.68;;;10.10;99.90;;;;;;4993199;28;20027;-72
2023/04/09 02:22:09;;;;;;;8.48;4.85;;;10.10;99.90;;;;;;4993905;28;20022;-72
2023/04/09 02:24:35;;;;;;;9.55;4.70;;;10.10;99.90;;;;;;4994519;28;20038;-72
2023/04/09 02:27:01;;;;;;;8.55;4.30;;;10.10;99.90;;;;;;4993684;28;20033;-72
2023/04/09 02:29:27;;;;;;;7.63;4.43;;;10.10;99.90;;;;;;4994166;28;20018;-72
2023/04/09 02:31:52;;;;;;;8.43;4.43;;;10.10;99.90;;;;;;4993718;28;20084;-72
2023/04/09 02:34:19;;;;;;;9.50;4.43;;;10.10;99.90;;;;;;4994136;28;20031;-73
2023/04/09 02:36:44;;;;;;;8.23;4.40;;;10.00;99.90;;;;;;4994204;28;20026;-72
2023/04/09 02:39:10;;;;;;;7.70;4.47;;;10.10;99.90;;;;;;4993595;28;20084;-72
2023/04/09 02:41:35;;;;;;;7.93;4.38;;;10.00;99.90;;;;;;4994111;28;20321;-72
2023/04/09 02:44:01;;;;;;;9.13;4.80;;;10.00;99.90;;;;;;4993545;28;20058;-72
2023/04/09 02:46:27;;;;;;;9.52;5.40;;;9.90;99.90;;;;;;4992971;28;20061;-72
2023/04/09 02:48:52;;;;;;;9.10;4.85;;;9.90;99.90;;;;;;4992029;28;20029;-72
2023/04/09 02:51:19;;;;;;;7.38;4.30;;;9.90;99.90;;;;;;4993924;28;20035;-73
2023/04/09 02:53:44;;;;;;;9.10;4.75;;;9.90;99.90;;;;;;4992645;28;20247;-73
2023/04/09 02:56:10;;;;;;;7.25;4.60;;;9.90;99.90;;;;;;4991876;28;20124;-72
2023/04/09 02:58:35;;;;;;;10.20;4.82;;;9.80;99.90;;;;;;4992516;28;20081;-72
2023/04/09 03:01:01;;;;;;;8.77;4.97;;;9.90;99.90;;;;;;4993158;28;20027;-73
2023/04/09 03:03:27;;;;;;;9.93;4.93;;;9.90;99.90;;;;;;4992450;28;20468;-72
2023/04/09 03:05:53;;;;;;;8.98;4.90;;;9.90;99.90;;;;;;4993608;28;20456;-72
2023/04/09 03:08:19;;;;;;;9.68;4.90;;;9.90;99.90;;;;;;4993278;28;20368;-72
2023/04/09 03:10:44;;;;;;;6.72;4.18;;;9.90;99.90;;;;;;4993765;28;20069;-73
2023/04/09 03:13:10;;;;;;;8.60;4.65;;;9.90;99.90;;;;;;4992932;28;20038;-72
2023/04/09 03:15:36;;;;;;;10.80;5.28;;;9.90;99.90;;;;;;4992151;28;20037;-72
2023/04/09 03:18:01;;;;;;;7.82;4.88;;;9.90;99.90;;;;;;4991562;28;20494;-72
2023/04/09 03:20:27;;;;;;;8.55;4.82;;;9.90;99.90;;;;;;4993678;28;20027;-72
2023/04/09 03:22:52;;;;;;;9.52;5.00;;;9.90;99.90;;;;;;4993417;28;20069;-72
2023/04/09 03:25:19;;;;;;;8.43;4.60;;;9.80;99.90;;;;;;4991479;28;20038;-72
2023/04/09 03:27:45;;;;;;;9.23;4.93;;;9.80;99.90;;;;;;4993314;28;20499;-72
2023/04/09 03:30:11;;;;;;;9.10;4.78;;;9.80;99.90;;;;;;4992761;28;20057;-72
2023/04/09 03:32:36;;;;;;;10.07;5.57;;;9.80;99.90;;;;;;5008274;28;20084;-72
2023/04/09 03:35:02;;;;;;;9.60;5.15;;;9.80;99.90;;;;;;5007527;28;20030;-72
2023/04/09 03:37:28;;;;;;;8.95;4.72;;;9.70;99.90;;;;;;4993467;28;20034;-72
2023/04/09 03:39:53;;;;;;;10.50;5.18;;;9.80;99.90;;;;;;4993159;28;20026;-72
2023/04/09 03:42:19;;;;;;;9.57;4.88;;;9.70;99.90;;;;;;4991048;28;20070;-72
2023/04/09 03:44:45;;;;;;;9.95;5.03;;;9.70;99.90;;;;;;4991922;28;20039;-72
2023/04/09 03:47:10;;;;;;;9.00;4.53;;;9.80;99.90;;;;;;4992339;28;20038;-72
2023/04/09 03:49:36;;;;;;;8.02;4.70;;;9.80;99.90;;;;;;4992893;28;20085;-72
2023/04/09 03:52:02;;;;;;;9.95;5.10;;;9.80;99.90;;;;;;4992532;28;20081;-72
2023/04/09 03:54:30;;;;;;;10.63;4.97;;;9.80;99.90;;;;;;4992997;28;20034;-72
2023/04/09 03:56:56;;;;;;;9.00;5.00;;;9.70;99.90;;;;;;4991639;28;20073;-72
2023/04/09 03:59:22;;;;;;;9.10;5.07;;;9.70;99.90;;;;;;4993340;28;20393;-73
2023/04/09 04:01:48;;;;;;;10.43;5.03;;;9.70;99.90;;;;;;4993043;28;20054;-72
2023/04/09 04:04:14;;;;;;;10.40;5.30;;;9.70;99.90;;;;;;4992405;28;20033;-72
2023/04/09 04:06:39;;;;;;;7.97;4.70;;;9.70;99.90;;;;;;4991578;28;20084;-72
2023/04/09 04:09:05;;;;;;;13.13;5.18;;;9.70;99.90;;;;;;4991173;28;20436;-72
2023/04/09 04:11:31;;;;;;;10.07;5.43;;;9.70;99.90;;;;;;4992895;28;20085;-72
2023/04/09 04:13:56;;;;;;;11.75;6.03;;;9.70;99.90;;;;;;4991526;28;20053;-72
2023/04/09 04:16:22;;;;;;;8.40;4.88;;;9.60;99.90;;;;;;4992375;28;20484;-72
2023/04/09 04:18:48;;;;;;;11.48;5.50;;;9.60;99.90;;;;;;4991578;28;20030;-72
2023/04/09 04:21:15;;;;;;;10.93;5.40;;;9.50;99.90;;;;;;4990996;28;20022;-72
2023/04/09 04:23:40;;;;;;;9.45;5.32;;;9.50;99.90;;;;;;4992875;28;20030;-72
2023/04/09 04:26:08;;;;;;;8.85;5.45;;;9.50;99.90;;;;;;4992444;28;20463;-72
2023/04/09 04:28:35;;;;;;;11.23;5.50;;;9.60;99.90;;;;;;4991400;28;20452;-72
2023/04/09 04:31:00;;;;;;;10.52;5.53;;;9.50;99.90;;;;;;4992133;28;20058;-72
2023/04/09 04:33:26;;;;;;;10.88;5.32;;;9.50;99.90;;;;;;4992719;28;20474;-72
2023/04/09 04:35:52;;;;;;;9.98;5.28;;;9.40;99.90;;;;;;4992342;28;20550;-72
2023/04/09 04:38:17;;;;;;;10.70;5.80;;;9.40;99.90;;;;;;4992060;28;20033;-72
2023/04/09 04:40:43;;;;;;;10.20;5.60;;;9.50;99.90;;;;;;4992914;28;20094;-72
2023/04/09 04:43:08;;;;;;;9.55;5.30;;;9.40;99.90;;;;;;5006926;28;20510;-72
2023/04/09 04:45:34;;;;;;;10.25;5.40;;;9.40;99.90;;;;;;4992661;28;20083;-72
2023/04/09 04:48:00;;;;;;;14.40;5.82;;;9.40;99.90;;;;;;5007028;28;20031;-72
2023/04/09 04:50:25;;;;;;;10.73;5.47;;;9.40;99.90;;;;;;5007793;28;20117;-73
2023/04/09 04:52:51;;;;;;;9.93;5.82;;;9.30;99.90;;;;;;4992553;28;20105;-72
2023/04/09 04:55:17;;;;;;;9.55;5.10;;;9.30;99.90;;;;;;4991874;28;20029;-72
2023/04/09 04:57:42;;;;;;;11.02;6.10;;;9.30;99.90;;;;;;4992502;28;20034;-72
2023/04/09 05:00:08;;;;;;;12.60;5.45;;;9.30;99.90;;;;;;4993245;28;20460;-73
2023/04/09 05:02:34;;;;;;;11.57;5.70;;;9.20;99.90;;;;;;4995909;28;20018;-72
2023/04/09 05:05:00;;;;;;;10.85;5.82;;;9.20;99.90;;;;;;4995924;28;20387;-72
2023/04/09 05:07:25;;;;;;;10.48;5.38;;;9.20;99.90;;;;;;4994335;28;20479;-72
2023/04/09 05:09:51;;;;;;;12.20;6.25;;;9.10;99.90;;;;;;4995823;28;20030;-72
2023/04/09 05:12:16;;;;;;;12.88;5.95;;;9.10;99.90;;;;;;4993485;28;20045;-72
2023/04/09 05:14:43;;;;;;;10.65;5.88;;;9.10;99.90;;;;;;4995393;28;20034;-72
2023/04/09 05:17:08;;;;;;;12.23;5.88;;;9.00;99.90;;;;;;4993620;28;20030;-72
2023/04/09 05:19:34;;;;;;;11.55;6.10;;;9.00;99.90;;;;;;4994452;28;20023;-72
2023/04/09 05:21:59;;;;;;;11.27;6.20;;;8.90;99.90;;;;;;4995623;28;20030;-72
2023/04/09 05:24:25;;;;;;;11.70;5.78;;;8.90;99.90;;;;;;4995014;28;20357;-72
2023/04/09 05:26:51;;;;;;;12.02;5.90;;;8.80;99.90;;;;;;4995554;28;20450;-72
2023/04/09 05:29:17;;;;;;;15.32;7.68;;;8.80;99.90;;;;;;4993592;28;20118;-72
2023/04/09 05:31:42;;;;;;;14.27;6.90;;;8.80;99.90;;;;;;4994131;28;20097;-72
2023/04/09 05:34:08;;;;;;;11.05;5.93;;;8.80;99.90;;;;;;4994953;28;20037;-72
2023/04/09 05:36:33;;;;;;;12.75;6.18;;;8.70;99.90;;;;;;4995425;28;20045;-72
2023/04/09 05:38:59;;;;;;;12.48;6.47;;;8.70;99.90;;;;;;4995318;28;20468;-72
2023/04/09 05:41:25;;;;;;;13.38;5.97;;;8.60;99.90;;;;;;4993170;28;20038;-72
2023/04/09 05:43:50;;;;;;;14.43;6.22;;;8.60;99.90;;;;;;5010062;28;20054;-72
2023/04/09 05:46:16;;;;;;;13.20;6.07;;;8.60;99.90;;;;;;4994323;28;20034;-73
2023/04/09 05:48:41;;;;;;;12.60;6.03;;;8.60;99.90;;;;;;4993988;28;20026;-72
2023/04/09 05:51:08;;;;;;;13.10;6.30;;;8.50;99.90;;;;;;4993332;28;20035;-72
2023/04/09 05:53:34;;;;;;;11.88;6.30;;;8.50;99.90;;;;;;4993713;28;20031;-72
2023/04/09 05:55:59;;;;;;;13.75;7.03;;;8.50;99.90;;;;;;4995067;28;20061;-72
2023/04/09 05:58:27;;;;;;;13.00;6.57;;;8.50;99.90;;;;;;4994627;28;20038;-73
2023/04/09 06:00:52;;;;;;;11.95;6.05;;;8.50;99.90;;;;;;4993629;28;20041;-72
2023/04/09 06:03:19;;;;;;;11.02;5.90;;;8.50;99.90;;;;;;4993735;28;20026;-72
2023/04/09 06:05:45;;;;;;;12.13;6.43;;;8.50;99.90;;;;;;4993485;28;20085;-72
2023/04/09 06:08:12;;;;;;;12.65;6.75;;;8.40;99.90;;;;;;4992898;28;20026;-72
2023/04/09 06:10:38;;;;;;;13.35;6.97;;;8.50;99.90;;;;;;4993114;28;20121;-72
2023/04/09 06:13:05;;;;;;;14.15;6.82;;;8.40;99.90;;;;;;4994593;28;20110;-72
2023/04/09 06:15:30;;;;;;;13.98;6.93;;;8.30;99.90;;;;;;4993252;28;20050;-72
2023/04/09 06:17:56;;;;;;;18.85;8.70;;;8.30;99.90;;;;;;4993352;28;20035;-72
2023/04/09 06:20:21;;;;;;;20.23;9.30;;;8.30;99.90;;;;;;4992352;28;20459;-72
2023/04/09 06:22:47;;;;;;;13.90;7.47;;;8.40;99.90;;;;;;4994445;28;20053;-72
2023/04/09 06:25:13;;;;;;;14.85;7.18;;;8.30;99.90;;;;;;4992447;28;20030;-72
2023/04/09 06:27:38;;;;;;;15.18;6.63;;;8.40;99.90;;;;;;4994236;28;20026;-72
2023/04/09 06:30:05;;;;;;;15.18;6.97;;;8.40;99.90;;;;;;4992945;28;20089;-72
2023/04/09 06:32:30;;;;;;;13.77;6.85;;;8.50;99.90;;;;;;4994004;28;20022;-72
2023/04/09 06:34:56;;;;;;;13.55;6.20;;;8.60;99.90;;;;;;4994133;28;20037;-72
2023/04/09 06:37:21;;;;;;;14.05;7.40;;;8.80;99.90;;;;;;4993587;28;20460;-72
2023/04/09 06:39:47;;;;;;;13.15;6.72;;;8.90;99.90;;;;;;4994104;28;20518;-72
2023/04/09 06:42:13;;;;;;;13.98;7.30;;;8.90;99.90;;;;;;4991846;28;20057;-72
2023/04/09 06:44:38;;;;;;;13.07;7.03;;;9.10;99.90;;;;;;4992786;28;20035;-72
2023/04/09 06:47:04;;;;;;;12.98;6.65;;;9.10;99.90;;;;;;4992778;28;20383;-72
2023/04/09 06:49:29;;;;;;;12.80;6.40;;;9.20;99.90;;;;;;4993334;28;20080;-72
2023/04/09 06:51:55;;;;;;;14.82;6.55;;;9.20;99.90;;;;;;4992579;28;20096;-73
2023/04/09 06:54:24;;;;;;;13.02;6.45;;;9.20;99.90;;;;;;4991671;28;20026;-75
2023/04/09 06:56:50;;;;;;;15.52;6.90;;;9.20;99.90;;;;;;4993758;28;20329;-72
2023/04/09 06:59:16;;;;;;;13.75;7.15;;;9.30;99.90;;;;;;4991888;28;20026;-72
2023/04/09 07:01:41;;;;;;;13.88;7.50;;;9.30;99.90;;;;;;4992429;28;20033;-72
2023/04/09 07:04:07;;;;;;;13.82;7.57;;;9.30;99.90;;;;;;4993462;28;20205;-72
2023/04/09 07:06:33;;;;;;;16.23;7.78;;;9.30;99.90;;;;;;4992404;28;20380;-72
2023/04/09 07:08:59;;;;;;;15.50;7.65;;;9.30;99.90;;;;;;4993946;28;20031;-72
2023/04/09 07:11:25;;;;;;;12.63;6.65;;;9.30;99.90;;;;;;4991552;28;20088;-72
2023/04/09 07:13:50;;;;;;;12.50;6.75;;;9.40;99.90;;;;;;4992144;28;20514;-72
2023/04/09 07:16:16;;;;;;;16.42;6.80;;;9.40;99.90;;;;;;4992923;28;20130;-72
2023/04/09 07:18:42;;;;;;;13.60;7.38;;;9.40;99.90;;;;;;4992211;28;20031;-72
2023/04/09 07:21:07;;;;;;;16.58;8.70;;;9.50;99.90;;;;;;4993321;28;20551;-72
2023/04/09 07:23:35;;;;;;;15.00;7.70;;;9.50;99.90;;;;;;4990808;28;20054;-72
2023/04/09 07:26:04;;;;;;;16.42;8.23;;;9.50;99.90;;;;;;4991963;28;20427;-72
2023/04/09 07:28:30;;;;;;;13.93;7.32;;;9.50;99.90;;;;;;4992688;28;20037;-72
2023/04/09 07:30:56;;;;;;;15.88;7.85;;;9.50;99.90;;;;;;4993337;28;20026;-72
2023/04/09 07:33:22;;;;;;;11.55;6.80;;;9.60;99.90;;;;;;4991751;28;20033;-72
2023/04/09 07:35:47;;;;;;;13.85;7.35;;;9.60;99.90;;;;;;4991978;28;20052;-72
2023/04/09 07:38:13;;;;;;;14.13;7.13;;;9.60;99.90;;;;;;4992045;28;20470;-72
2023/04/09 07:40:39;;;;;;;13.73;7.47;;;9.70;99.90;;;;;;4991893;28;20467;-72
2023/04/09 07:43:05;;;;;;;12.75;7.03;;;9.70;99.90;;;;;;4991653;28;20471;-72
2023/04/09 07:45:30;;;;;;;14.73;7.55;;;9.70;99.90;;;;;;4992280;28;20034;-72
2023/04/09 07:47:56;;;;;;;13.93;7.57;;;9.80;99.90;;;;;;4993108;28;20053;-72
2023/04/09 07:50:22;;;;;;;13.90;7.20;;;9.80;99.90;;;;;;4992581;28;20026;-72
2023/04/09 07:52:47;;;;;;;14.02;7.00;;;9.80;99.90;;;;;;4992821;28;20026;-72
2023/04/09 07:55:13;;;;;;;13.90;7.25;;;9.90;99.90;;;;;;4992526;28;20035;-72
2023/04/09 07:57:39;;;;;;;18.42;8.90;;;9.90;99.90;;;;;;4991461;28;20372;-72
2023/04/09 08:00:05;;;;;;;16.52;8.07;;;10.00;99.90;;;;;;4992798;28;20110;-72
2023/04/09 08:02:31;;;;;;;12.27;7.22;;;10.00;99.90;;;;;;4990870;28;20247;-72
2023/04/09 08:04:56;;;;;;;16.23;7.57;;;10.10;99.90;;;;;;4991643;28;20038;-72
2023/04/09 08:07:22;;;;;;;13.32;7.20;;;10.10;99.90;;;;;;4991126;28;20022;-72
2023/04/09 08:09:48;;;;;;;14.07;7.43;;;10.10;99.90;;;;;;4991640;28;20026;-73
2023/04/09 08:12:13;;;;;;;15.63;7.47;;;10.10;99.90;;;;;;4991070;28;20030;-73
2023/04/09 08:14:40;;;;;;;14.38;7.97;;;10.20;99.90;;;;;;4990488;28;20092;-73
2023/04/09 08:17:05;;;;;;;13.52;8.20;;;10.30;99.90;;;;;;4994074;28;20457;-73
2023/04/09 08:19:31;;;;;;;13.40;7.53;;;10.40;99.90;;;;;;4991519;28;20325;-73
2023/04/09 08:21:57;;;;;;;12.10;7.55;;;10.40;99.90;;;;;;4990075;28;20053;-73
2023/04/09 08:24:23;;;;;;;12.82;7.60;;;10.50;99.90;;;;;;4991812;28;20034;-73
2023/04/09 08:26:49;;;;;;;12.15;7.68;;;10.60;99.90;;;;;;4992761;28;20030;-74
2023/04/09 08:29:14;;;;;;;11.35;6.93;;;10.70;99.90;;;;;;4992116;28;20032;-73
2023/04/09 08:31:40;;;;;;;13.80;7.88;;;10.60;99.90;;;;;;5007713;28;20034;-73
2023/04/09 08:34:06;;;;;;;14.15;7.70;;;10.60;99.90;;;;;;4992363;28;20027;-72
2023/04/09 08:36:34;;;;;;;11.70;6.93;;;10.60;99.90;;;;;;4994476;28;20505;-72
2023/04/09 08:38:59;;;;;;;13.07;7.63;;;10.60;99.90;;;;;;4996336;28;20032;-73
2023/04/09 08:41:30;;;;;;;11.93;7.05;;;10.70;99.90;;;;;;4994459;28;20030;-72
2023/04/09 08:43:56;;;;;;;11.77;6.90;;;10.70;99.90;;;;;;4994811;28;20082;-73
2023/04/09 08:46:22;;;;;;;11.90;6.97;;;10.70;99.90;;;;;;4995361;28;20499;-72
2023/04/09 08:48:50;;;;;;;11.15;6.68;;;10.70;99.90;;;;;;4994136;28;20069;-72
2023/04/09 08:51:17;;;;;;;12.30;7.30;;;10.80;99.90;;;;;;4993289;28;20038;-71
2023/04/09 08:53:55;;;;;;;9.90;6.47;;;10.80;99.90;;;;;;4994750;28;20022;-72
2023/04/09 08:56:22;;;;;;;9.98;6.00;;;10.80;99.90;;;;;;5010661;28;20117;-72
2023/04/09 08:58:48;;;;;;;11.68;7.00;;;10.80;99.90;;;;;;4996038;28;20022;-72
2023/04/09 09:01:32;;;;;;;10.43;5.90;;;10.90;99.90;;;;;;4994433;28;20026;-72
2023/04/09 09:04:02;;;;;;;10.23;5.68;;;10.90;99.90;;;;;;4995651;28;20494;-72
2023/04/09 09:06:37;;;;;;;8.90;5.40;;;11.00;99.90;;;;;;4995303;28;20031;-72
2023/04/09 09:09:10;;;;;;;9.70;5.18;;;11.00;99.90;;;;;;4995832;28;20018;-72
2023/04/09 09:11:37;;;;;;;6.82;4.72;;;11.10;99.90;;;;;;4994958;28;20045;-72
2023/04/09 09:14:11;;;;;;;7.55;5.05;;;11.10;99.90;;;;;;4994250;28;20034;-72
2023/04/09 09:16:42;;;;;;;9.77;4.47;;;11.10;99.90;;;;;;4993841;28;20117;-72
2023/04/09 09:19:36;;;;;;;7.15;4.88;;;11.20;99.90;;;;;;4994368;28;20030;-72
2023/04/09 09:22:02;;;;;;;9.95;5.88;;;11.20;99.90;;;;;;4995652;28;20026;-72
2023/04/09 09:24:29;;;;;;;7.72;4.82;;;11.20;99.90;;;;;;4993661;28;20061;-72
2023/04/09 09:26:57;;;;;;;9.45;5.72;;;11.30;99.90;;;;;;4994286;28;20030;-72
2023/04/09 09:29:23;;;;;;;8.18;5.15;;;11.50;99.90;;;;;;5009969;28;20033;-72
2023/04/09 09:31:53;;;;;;;8.70;4.72;;;11.70;99.90;;;;;;4995448;28;20026;-72
2023/04/09 09:34:19;;;;;;;8.65;5.30;;;11.90;99.90;;;;;;4994747;28;20034;-72
2023/04/09 09:36:45;;;;;;;8.90;5.47;;;11.90;99.90;;;;;;4995359;28;20105;-72
2023/04/09 09:39:12;;;;;;;8.25;4.50;;;11.90;99.90;;;;;;4992715;28;20030;-75
2023/04/09 09:41:41;;;;;;;6.18;4.30;;;12.00;99.90;;;;;;4981665;28;20113;-73
2023/04/09 09:44:09;;;;;;;6.65;4.10;;;12.20;99.90;;;;;;4993061;28;20101;-74
2023/04/09 09:46:37;;;;;;;5.68;3.80;;;12.30;99.90;;;;;;4991663;28;20072;-75
2023/04/09 09:49:03;;;;;;;9.57;4.25;;;12.40;99.90;;;;;;4993358;28;20034;-75
2023/04/09 09:51:31;;;;;;;6.15;4.10;;;12.50;99.90;;;;;;4994437;28;20097;-74
2023/04/09 09:53:57;;;;;;;4.80;3.40;;;12.60;99.90;;;;;;4993456;28;20464;-72
2023/04/09 09:56:31;;;;;;;6.00;3.65;;;12.70;99.90;;;;;;4992839;28;20045;-72
2023/04/09 09:59:11;;;;;;;6.18;3.97;;;12.80;99.90;;;;;;4993936;28;20026;-72
2023/04/09 10:01:38;;;;;;;5.30;3.88;;;12.90;99.90;;;;;;4993128;28;20026;-72
2023/04/09 10:04:06;;;;;;;6.60;4.53;;;12.90;99.90;;;;;;4994559;28;20029;-72
2023/04/09 10:06:34;;;;;;;7.10;4.40;;;13.10;99.90;;;;;;4994224;28;20026;-72
2023/04/09 10:09:03;;;;;;;7.45;4.22;;;13.20;99.90;;;;;;4993434;28;20030;-72
2023/04/09 10:11:35;;;;;;;6.28;4.43;;;13.40;99.90;;;;;;4994196;28;20478;-72
2023/04/09 10:14:01;;;;;;;8.27;4.88;;;13.40;99.90;;;;;;4994651;28;20038;-72
2023/04/09 10:16:27;;;;;;;6.88;4.20;;;13.40;99.90;;;;;;4992754;28;20105;-71
2023/04/09 10:18:55;;;;;;;5.15;3.67;;;13.30;99.90;;;;;;4994597;28;20479;-72
2023/04/09 10:21:37;;;;;;;6.25;4.00;;;13.20;99.60;;;;;;5009157;28;20399;-71
2023/04/09 10:24:05;;;;;;;6.65;4.32;;;13.20;99.90;;;;;;4993546;28;20058;-72
2023/04/09 10:26:35;;;;;;;7.55;4.72;;;13.30;99.90;;;;;;4993797;28;20030;-72
2023/04/09 10:29:12;;;;;;;5.57;4.20;;;13.40;99.90;;;;;;4994405;28;20034;-72
2023/04/09 10:32:05;;;;;;;6.72;3.95;;;13.40;99.90;;;;;;4993597;28;20422;-75
2023/04/09 10:34:35;;;;;;;6.32;4.07;;;13.60;99.90;;;;;;4990742;28;20035;-71
2023/04/09 10:37:01;;;;;;;5.22;3.60;;;13.60;99.90;;;;;;4993052;28;20045;-71
2023/04/09 10:39:29;;;;;;;5.45;4.00;;;13.70;99.10;;;;;;4992501;28;20022;-71
2023/04/09 10:41:56;;;;;;;7.53;4.25;;;13.70;99.00;;;;;;4994090;28;20030;-72
2023/04/09 10:44:25;;;;;;;7.55;4.25;;;13.80;98.90;;;;;;4992270;28;20038;-72
2023/04/09 10:46:55;;;;;;;7.28;4.10;;;13.90;98.70;;;;;;4992735;28;20084;-72
2023/04/09 10:49:24;;;;;;;4.95;3.55;;;14.00;98.30;;;;;;4993418;28;20030;-72
2023/04/09 10:52:12;;;;;;;5.70;3.80;;;14.00;97.70;;;;;;4993977;28;20030;-72
2023/04/09 10:54:44;;;;;;;6.32;4.03;;;14.00;98.80;;;;;;4993051;28;20033;-72
2023/04/09 10:57:19;;;;;;;6.10;3.83;;;14.00;98.80;;;;;;4992131;28;20121;-72
2023/04/09 10:59:49;;;;;;;4.85;3.40;;;14.00;98.30;;;;;;4993378;28;20365;-73
2023/04/09 11:02:47;;;;;;;5.00;3.70;;;14.10;98.00;;;;;;4994285;28;20018;-72
2023/04/09 11:05:32;;;;;;;6.10;3.30;;;14.20;97.60;;;;;;4992256;28;20030;-72
2023/04/09 11:08:08;;;;;;;5.20;3.50;;;14.30;98.00;;;;;;4992663;28;20030;-72
2023/04/09 11:10:34;;;;;;;5.03;3.38;;;14.40;96.90;;;;;;4992876;28;20379;-72
2023/04/09 11:13:00;;;;;;;4.97;3.38;;;14.50;96.00;;;;;;4993569;28;20077;-72
2023/04/09 11:15:26;;;;;;;4.00;3.22;;;14.70;95.40;;;;;;4991522;28;20026;-72
2023/04/09 11:17:52;;;;;;;4.53;2.65;;;14.80;94.80;;;;;;4993374;28;20088;-72
2023/04/09 11:20:22;;;;;;;4.20;2.92;;;14.80;94.00;;;;;;4993416;28;20212;-72
2023/04/09 11:22:50;;;;;;;3.55;2.80;;;14.80;92.50;;;;;;4993413;28;20497;-72
2023/04/09 11:25:27;;;;;;;4.85;3.08;;;14.80;93.30;;;;;;4993166;28;20142;-72
2023/04/09 11:27:53;;;;;;;5.47;2.70;;;14.80;90.90;;;;;;4973444;28;20023;-72
2023/04/09 11:30:19;;;;;;;3.85;2.55;;;14.70;91.00;;;;;;4973836;28;20150;-72
2023/04/09 11:32:45;;;;;;;5.32;3.00;;;14.60;91.40;;;;;;4971935;28;20027;-72
2023/04/09 11:35:19;;;;;;;4.15;3.00;;;14.60;91.20;;;;;;4972447;28;20527;-72
2023/04/09 11:37:45;;;;;;;3.90;2.95;;;14.70;91.40;;;;;;4973049;28;20035;-72
2023/04/09 11:40:28;;;;;;;3.97;2.50;;;14.70;90.60;;;;;;4973644;28;20026;-72
2023/04/09 11:42:54;;;;;;;3.13;2.25;;;14.80;91.00;;;;;;4973358;28;20504;-72
2023/04/09 11:45:23;;;;;;;4.28;3.00;;;14.90;90.60;;;;;;4972442;28;20081;-72
2023/04/09 11:47:49;;;;;;;4.22;2.85;;;14.90;88.60;;;;;;4973444;28;20388;-72
2023/04/09 11:50:15;;;;;;;3.20;2.50;;;14.80;87.80;;;;;;4973299;28;20058;-72
2023/04/09 11:52:42;;;;;;;3.13;2.08;;;14.80;89.00;;;;;;4971521;28;20038;-72
2023/04/09 11:55:09;;;;;;;3.33;2.03;;;14.80;88.80;;;;;;4973299;28;20035;-72
2023/04/09 11:57:43;;;;;;;4.03;2.30;;;14.80;89.60;;;;;;4972494;28;20035;-72
2023/04/09 12:00:11;;;;;;;3.13;2.17;;;14.70;84.50;;;;;;4972131;28;20364;-72
2023/04/09 12:02:39;;;;;;;4.75;2.80;;;14.60;85.80;;;;;;4971083;28;20568;-72
2023/04/09 12:05:06;;;;;;;4.70;2.10;;;14.60;87.60;;;;;;4971895;28;20066;-73
2023/04/09 12:07:32;;;;;;;2.10;1.70;;;14.60;86.10;;;;;;4972201;28;20035;-72
2023/04/09 12:10:04;;;;;;;2.67;2.00;;;14.60;85.80;;;;;;4975780;28;20023;-72
2023/04/09 12:12:29;;;;;;;2.22;1.85;;;14.60;87.20;;;;;;4976410;28;20027;-72
2023/04/09 12:14:57;;;;;;;2.40;2.00;;;14.60;85.00;;;;;;4977032;28;20384;-73
2023/04/09 12:17:23;;;;;;;2.55;1.60;;;14.70;84.10;;;;;;4975660;28;20058;-73
2023/04/09 12:19:49;;;;;;;2.28;1.88;;;14.70;85.00;;;;;;4974997;28;20027;-72
2023/04/09 12:22:14;;;;;;;2.40;1.90;;;15.00;82.60;;;;;;4975777;28;20023;-73
2023/04/09 12:24:40;;;;;;;2.00;1.60;;;15.30;83.50;;;;;;4976081;28;20045;-72
2023/04/09 12:27:06;;;;;;;3.45;2.08;;;15.50;82.60;;;;;;4977086;28;20349;-72
2023/04/09 12:29:32;;;;;;;3.10;2.08;;;15.70;79.80;;;;;;4974392;28;20444;-72
2023/04/09 12:31:58;;;;;;;2.28;1.73;;;16.00;78.60;;;;;;4976360;28;20488;-72
2023/04/09 12:34:23;;;;;;;2.78;1.98;;;16.00;75.60;;;;;;4976588;28;20066;-72
2023/04/09 12:36:49;;;;;;;2.47;1.75;;;16.00;76.60;;;;;;4974523;28;20031;-72
2023/04/09 12:39:15;;;;;;;3.50;2.38;;;16.00;76.20;;;;;;4975321;28;20046;-72
2023/04/09 12:41:41;;;;;;;3.47;2.10;;;16.00;73.90;;;;;;4974326;28;20034;-72
2023/04/09 12:44:06;;;;;;;3.00;2.30;;;16.10;73.50;;;;;;4974686;28;20460;-72
2023/04/09 12:46:32;;;;;;;2.95;2.10;;;16.10;72.00;;;;;;4974347;28;20027;-72
2023/04/09 12:48:57;;;;;;;2.40;2.05;;;16.10;72.40;;;;;;4975001;28;20035;-73